Time;durP1;ratioP1;P1;durP2;ratioP2;P2;SDS_P1;SDS_P2;PMS_P1;PMS_P2;Temp;Humidity;BMP_temperature;BMP_pressure;BME280_temperature;BME280_humidity;BME280_pressure;Samples;Min_cycle;Max_cycle;Signal;HPM_P1;HPM_P2
2022/05/18 00:00:32;;;;;;;12.00;8.85;;;;;;;19.86;65.96;99695.13;5089687;28;20031;-34
2022/05/18 00:03:04;;;;;;;12.18;8.43;;;;;;;19.74;65.98;99694.75;5108684;28;20130;-30
2022/05/18 00:05:34;;;;;;;10.77;8.13;;;;;;;19.75;66.42;99686.31;5089643;28;20066;-30
2022/05/18 00:07:59;;;;;;;10.07;7.88;;;;;;;19.78;67.41;99674.13;5089845;28;20502;-29
2022/05/18 00:10:25;;;;;;;11.07;8.05;;;;;;;19.80;66.61;99682.78;5089870;28;20063;-29
2022/05/18 00:12:51;;;;;;;10.20;7.32;;;;;;;19.73;65.81;99679.59;5089709;28;20047;-37
2022/05/18 00:15:19;;;;;;;11.68;7.32;;;;;;;19.64;65.83;99668.59;5107928;28;20152;-31
2022/05/18 00:17:45;;;;;;;13.50;7.18;;;;;;;19.56;65.79;99666.50;5108198;28;20050;-29
2022/05/18 00:20:12;;;;;;;8.50;6.50;;;;;;;19.92;65.52;99668.81;5107723;28;20550;-30
2022/05/18 00:22:49;;;;;;;10.38;7.18;;;;;;;20.00;64.63;99682.50;5089335;28;20027;-29
2022/05/18 00:25:16;;;;;;;16.15;7.55;;;;;;;20.12;65.71;99667.72;5089437;28;20534;-28
2022/05/18 00:27:42;;;;;;;10.00;6.60;;;;;;;20.33;63.69;99676.34;5089301;28;20028;-29
2022/05/18 00:30:11;;;;;;;13.13;6.25;;;;;;;19.95;63.49;99641.97;5107616;28;20114;-29
2022/05/18 00:32:36;;;;;;;12.50;5.97;;;;;;;19.83;63.95;99660.53;5088955;28;20023;-32
2022/05/18 00:35:02;;;;;;;9.32;6.18;;;;;;;19.98;63.68;99671.16;5107685;28;20038;-31
2022/05/18 00:37:28;;;;;;;11.43;5.25;;;;;;;19.95;63.90;99669.03;5089172;28;20031;-30
2022/05/18 00:39:53;;;;;;;6.28;5.07;;;;;;;19.89;63.12;99648.53;5107535;28;20052;-30
2022/05/18 00:42:24;;;;;;;7.72;4.95;;;;;;;19.79;63.76;99649.47;5088887;28;20691;-32
2022/05/18 00:44:49;;;;;;;8.65;5.25;;;;;;;20.02;63.33;99669.50;5089172;28;20043;-29
2022/05/18 00:47:15;;;;;;;9.48;5.30;;;;;;;20.10;62.63;99664.50;5088767;28;20053;-28
2022/05/18 00:49:46;;;;;;;10.05;5.20;;;;;;;20.04;62.23;99645.66;5107810;28;20102;-29
2022/05/18 00:52:14;;;;;;;6.55;4.90;;;;;;;20.14;62.52;99668.25;5089197;28;20543;-29
2022/05/18 00:54:40;;;;;;;;;;;;;;;20.32;62.23;99672.06;5089583;28;20043;-30
2022/05/18 00:57:29;;;;;;;7.82;4.88;;;;;;;20.39;61.75;99667.88;5107220;28;19912;-30
2022/05/18 00:59:58;;;;;;;8.20;5.35;;;;;;;20.33;62.82;99658.22;5106758;28;20027;-31
2022/05/18 01:02:29;;;;;;;10.57;5.55;;;;;;;20.58;61.19;99648.94;5088608;28;20023;-33
2022/05/18 01:04:57;;;;;;;8.45;5.25;;;;;;;20.64;61.72;99665.91;5088939;28;20096;-30
2022/05/18 01:07:31;;;;;;;7.60;5.40;;;;;;;20.80;61.41;99674.56;5088927;28;20028;-31
2022/05/18 01:09:56;;;;;;;9.63;6.18;;;;;;;20.97;62.16;99647.72;5107460;28;20031;-29
2022/05/18 01:12:22;;;;;;;8.85;5.35;;;;;;;20.87;59.80;99656.84;5106780;28;20038;-33
2022/05/18 01:14:56;;;;;;;6.90;5.35;;;;;;;21.17;62.64;99651.19;5088689;28;20415;-29
2022/05/18 01:17:29;;;;;;;8.00;4.80;;;;;;;21.22;60.34;99651.88;5105758;28;20028;-32
2022/05/18 01:20:02;;;;;;;8.52;4.90;;;;;;;20.80;61.70;99640.16;5088727;28;20031;-32
2022/05/18 01:22:30;;;;;;;8.77;5.43;;;;;;;20.93;61.20;99671.13;5088817;28;20806;-29
2022/05/18 01:25:30;;;;;;;7.13;5.32;;;;;;;20.77;62.91;99673.25;5107083;28;20038;-29
2022/05/18 01:27:57;;;;;;;7.18;5.35;;;;;;;20.93;62.76;99681.16;5107169;28;20065;-29
2022/05/18 01:30:24;;;;;;;9.35;5.25;;;;;;;20.77;62.63;99677.88;5107243;28;20032;-33
2022/05/18 01:32:52;;;;;;;4.93;3.30;;;;;;;20.87;59.87;99696.69;5107055;28;20101;-29
2022/05/18 01:35:32;;;;;;;5.63;3.58;;;;;;;20.96;58.86;99697.59;5106863;28;20039;-29
2022/05/18 01:37:59;;;;;;;4.88;2.60;;;;;;;20.83;57.53;99698.38;5088825;28;20036;-34
2022/05/18 01:40:49;;;;;;;5.25;2.30;;;;;;;20.89;57.16;99696.41;5088572;28;20044;-29
2022/05/18 01:43:18;;;;;;;3.72;2.22;;;;;;;20.51;58.05;99685.56;5107077;28;20031;-32
2022/05/18 01:45:43;;;;;;;4.47;1.90;;;;;;;20.40;57.64;99669.47;5105236;28;20036;-32
2022/05/18 01:48:14;;;;;;;4.43;2.38;;;;;;;20.27;58.26;99664.81;5106945;28;20101;-29
2022/05/18 01:50:41;;;;;;;3.85;2.13;;;;;;;20.33;58.40;99677.19;5088266;28;20035;-31
2022/05/18 01:53:08;;;;;;;3.63;2.30;;;;;;;20.31;58.07;99646.06;5088494;28;20030;-29
2022/05/18 01:55:33;;;;;;;5.43;2.55;;;;;;;20.45;58.59;99661.28;5088465;28;20031;-29
2022/05/18 01:58:00;;;;;;;3.50;2.20;;;;;;;20.34;58.43;99646.28;5106598;28;20400;-33
2022/05/18 02:00:26;;;;;;;4.72;2.58;;;;;;;20.27;58.75;99643.16;5088489;28;20049;-29
2022/05/18 02:02:51;;;;;;;4.97;2.42;;;;;;;20.31;59.20;99654.19;5088295;28;20031;-29
2022/05/18 02:05:17;;;;;;;3.58;2.60;;;;;;;20.21;59.15;99644.34;5106937;28;20137;-30
2022/05/18 02:07:42;;;;;;;4.57;2.58;;;;;;;20.27;58.97;99633.13;5106930;28;20487;-29
2022/05/18 02:10:08;;;;;;;4.32;2.65;;;;;;;20.33;59.01;99641.97;5105579;28;20051;-29
2022/05/18 02:12:34;;;;;;;5.25;2.85;;;;;;;20.34;58.89;99640.88;5108535;28;20028;-32
2022/05/18 02:15:00;;;;;;;5.70;3.20;;;;;;;20.36;59.46;99641.38;5091907;28;20023;-30
2022/05/18 02:17:26;;;;;;;3.78;2.65;;;;;;;20.36;59.16;99652.22;5092117;28;20036;-33
2022/05/18 02:19:52;;;;;;;4.95;2.70;;;;;;;20.59;58.19;99649.72;5110535;28;20024;-31
2022/05/18 02:22:18;;;;;;;4.82;3.00;;;;;;;20.84;58.18;99645.78;5110503;28;20027;-29
2022/05/18 02:24:43;;;;;;;5.53;2.92;;;;;;;20.75;58.14;99642.94;5110093;28;20035;-28
2022/05/18 02:27:09;;;;;;;5.53;3.17;;;;;;;20.76;58.22;99646.47;5110286;28;20031;-31
2022/05/18 02:29:35;;;;;;;6.00;3.35;;;;;;;20.68;57.24;99620.88;5110136;28;20111;-40
2022/05/18 02:32:00;;;;;;;4.95;3.13;;;;;;;20.58;57.62;99621.84;5091925;28;20063;-29
2022/05/18 02:34:26;;;;;;;5.45;3.50;;;;;;;20.55;57.51;99616.97;5110571;28;20058;-31
2022/05/18 02:36:52;;;;;;;4.97;3.25;;;;;;;20.55;58.16;99641.34;5110282;28;20047;-31
2022/05/18 02:39:20;;;;;;;6.88;3.70;;;;;;;20.29;58.69;99619.31;5110030;28;20044;-30
2022/05/18 02:41:47;;;;;;;6.35;4.07;;;;;;;20.37;59.04;99640.28;5108401;28;20031;-31
2022/05/18 02:44:13;;;;;;;7.80;3.97;;;;;;;20.39;58.63;99635.38;5091662;28;20066;-31
2022/05/18 02:46:38;;;;;;;6.00;3.92;;;;;;;20.17;59.07;99608.91;5108457;28;20063;-29
2022/05/18 02:49:04;;;;;;;6.45;3.70;;;;;;;20.29;59.08;99635.53;5110255;28;20059;-34
2022/05/18 02:51:30;;;;;;;6.13;3.90;;;;;;;19.97;59.86;99634.34;5108738;28;20034;-29
2022/05/18 02:53:56;;;;;;;6.47;3.55;;;;;;;20.07;59.61;99611.78;5108707;28;20031;-29
2022/05/18 02:56:25;;;;;;;5.22;3.47;;;;;;;19.88;60.06;99636.13;5091560;28;20136;-30
2022/05/18 02:58:52;;;;;;;5.18;3.45;;;;;;;19.65;61.00;99616.88;5108346;28;20116;-30
2022/05/18 03:01:26;;;;;;;6.30;3.93;;;;;;;19.63;61.47;99635.28;5091763;28;20024;-33
2022/05/18 03:03:52;;;;;;;7.05;3.80;;;;;;;19.42;62.13;99621.22;5091525;28;20028;-29
2022/05/18 03:06:20;;;;;;;7.10;3.97;;;;;;;19.45;62.32;99633.34;5091393;28;20388;-29
2022/05/18 03:08:46;;;;;;;6.53;4.00;;;;;;;19.51;61.91;99624.09;5091085;28;20031;-36
2022/05/18 03:11:13;;;;;;;5.47;3.80;;;;;;;19.60;62.16;99641.31;5109449;28;20039;-31
2022/05/18 03:13:39;;;;;;;6.27;4.10;;;;;;;19.55;62.56;99643.25;5091385;28;20085;-28
2022/05/18 03:16:05;;;;;;;5.82;3.92;;;;;;;19.50;62.74;99648.75;5091187;28;20031;-31
2022/05/18 03:18:31;;;;;;;6.30;3.90;;;;;;;19.24;63.62;99647.09;5109262;28;20104;-29
2022/05/18 03:23:42;;;;;;;6.82;4.30;;;;;;;19.13;64.21;99648.31;5108330;28;20044;-35
2022/05/18 03:26:16;;;;;;;6.80;3.95;;;;;;;19.06;64.40;99648.66;5090977;28;20031;-34
2022/05/18 03:28:44;;;;;;;6.68;3.83;;;;;;;19.11;64.15;99661.31;5109060;28;20410;-30
2022/05/18 03:31:10;;;;;;;;;;;;;;;19.04;64.68;99640.03;5090863;28;20177;-32
2022/05/18 03:33:37;;;;;;;7.05;4.43;;;;;;;19.03;64.97;99660.03;5108953;28;19949;-29
2022/05/18 03:36:04;;;;;;;7.65;4.20;;;;;;;19.21;64.51;99666.63;5090479;28;20483;-33
2022/05/18 03:38:30;;;;;;;7.35;4.18;;;;;;;19.15;64.71;99667.75;5108934;28;20031;-28
2022/05/18 03:40:55;;;;;;;6.65;4.70;;;;;;;19.12;64.74;99662.09;5108719;28;20808;-31
2022/05/18 03:43:21;;;;;;;6.88;4.50;;;;;;;19.09;64.92;99654.59;5108909;28;20495;-29
2022/05/18 03:45:50;;;;;;;6.45;5.00;;;;;;;19.05;65.17;99663.25;5107263;28;20410;-33
2022/05/18 03:48:17;;;;;;;6.05;4.22;;;;;;;18.78;65.89;99655.63;5090510;28;20023;-29
2022/05/18 03:50:46;;;;;;;8.65;4.18;;;;;;;18.93;65.67;99670.13;5108215;28;20110;-29
2022/05/18 03:53:12;;;;;;;7.30;4.10;;;;;;;18.76;65.57;99628.09;5108750;28;20123;-31
2022/05/18 03:55:40;;;;;;;6.05;4.35;;;;;;;18.93;65.83;99664.72;5108402;28;20035;-30
2022/05/18 03:58:05;;;;;;;;;;;;;;;19.13;64.99;99664.53;5108930;28;20122;-30
2022/05/18 04:00:32;;;;;;;6.05;4.13;;;;;;;19.17;65.20;99676.38;5107874;28;20010;-29
2022/05/18 04:02:58;;;;;;;6.97;4.57;;;;;;;19.04;65.84;99666.22;5089968;28;20039;-29
2022/05/18 04:05:23;;;;;;;7.82;5.13;;;;;;;19.20;65.49;99681.19;5089695;28;20032;-30
2022/05/18 04:07:49;;;;;;;5.85;3.90;;;;;;;19.20;65.50;99683.09;5089922;28;20441;-29
2022/05/18 04:10:16;;;;;;;21.05;4.68;;;;;;;19.41;65.24;99686.41;5108577;28;20077;-32
2022/05/18 04:12:43;;;;;;;7.35;4.38;;;;;;;19.36;64.98;99672.94;5107809;28;20049;-31
2022/05/18 04:15:10;;;;;;;6.22;4.20;;;;;;;19.45;64.73;99692.84;5108135;28;20118;-30
2022/05/18 04:17:36;;;;;;;5.80;4.10;;;;;;;19.42;64.77;99682.63;5107977;28;20088;-30
2022/05/18 04:20:04;;;;;;;7.97;4.47;;;;;;;19.39;64.82;99694.00;5089601;28;20019;-29
2022/05/18 04:22:29;;;;;;;7.65;4.30;;;;;;;19.53;64.44;99700.34;5108093;28;20028;-39
2022/05/18 04:24:55;;;;;;;7.32;4.43;;;;;;;19.64;64.16;99704.56;5108017;28;20054;-30
2022/05/18 04:27:20;;;;;;;7.40;4.05;;;;;;;19.45;64.38;99693.69;5108265;28;20042;-32
2022/05/18 04:29:46;;;;;;;5.95;3.97;;;;;;;19.57;64.09;99697.88;5107573;28;20035;-31
2022/05/18 04:32:11;;;;;;;7.50;4.35;;;;;;;19.76;63.96;99715.00;5107510;28;20035;-29
2022/05/18 04:34:38;;;;;;;5.60;3.97;;;;;;;19.77;63.56;99722.00;5107457;28;20032;-32
2022/05/18 04:37:03;;;;;;;6.05;3.72;;;;;;;19.66;63.16;99702.38;5105640;28;20483;-28
2022/05/18 04:39:29;;;;;;;5.28;3.38;;;;;;;19.85;62.75;99715.97;5089149;28;20048;-31
2022/05/18 04:41:54;;;;;;;9.30;4.18;;;;;;;19.76;62.86;99719.63;5088971;28;20027;-30
2022/05/18 04:44:20;;;;;;;8.07;3.80;;;;;;;19.91;62.63;99737.56;5107542;28;20020;-32
2022/05/18 04:46:45;;;;;;;6.75;3.80;;;;;;;20.10;61.89;99724.06;5107223;28;20077;-30
2022/05/18 04:49:12;;;;;;;6.38;3.33;;;;;;;20.09;61.21;99719.75;5107773;28;20027;-33
2022/05/18 04:51:38;;;;;;;6.63;3.78;;;;;;;20.02;60.75;99723.63;5089134;28;20068;-30
2022/05/18 04:54:03;;;;;;;7.63;3.90;;;;;;;20.13;61.30;99718.09;5106332;28;20027;-31
2022/05/18 04:56:29;;;;;;;7.20;3.80;;;;;;;20.23;60.30;99729.56;5105978;28;20044;-35
2022/05/18 04:58:55;;;;;;;6.40;3.20;;;;;;;20.28;60.04;99723.28;5107791;28;20038;-34
2022/05/18 05:01:20;;;;;;;5.80;3.33;;;;;;;20.14;59.75;99727.78;5107334;28;20093;-30
2022/05/18 05:03:46;;;;;;;5.30;3.38;;;;;;;20.28;59.86;99732.19;5107684;28;20031;-34
2022/05/18 05:06:11;;;;;;;8.82;3.38;;;;;;;20.33;59.63;99734.06;5107279;28;20595;-29
2022/05/18 05:08:37;;;;;;;4.45;3.03;;;;;;;20.39;59.49;99727.47;5088944;28;20032;-29
2022/05/18 05:11:05;;;;;;;9.35;3.47;;;;;;;20.54;59.31;99741.88;5105792;28;20035;-30
2022/05/18 05:13:31;;;;;;;;;;;;;;;20.56;58.73;99754.03;5107180;28;20043;-32
2022/05/18 05:16:05;;;;;;;6.10;3.53;;;;;;;20.42;58.87;99726.06;5088653;28;19907;-33
2022/05/18 05:18:31;;;;;;;5.55;3.47;;;;;;;20.50;59.53;99747.06;5105395;28;20028;-29
2022/05/18 05:20:57;;;;;;;5.07;3.00;;;;;;;20.51;58.91;99727.00;5107137;28;20024;-29
2022/05/18 05:23:24;;;;;;;6.10;3.63;;;;;;;20.90;58.79;99742.16;5107137;28;20088;-31
2022/05/18 05:25:50;;;;;;;7.15;3.50;;;;;;;20.73;58.64;99753.53;5107142;28;20035;-29
2022/05/18 05:28:16;;;;;;;5.95;3.38;;;;;;;20.51;59.25;99734.34;5088592;28;20107;-34
2022/05/18 05:30:41;;;;;;;5.97;3.30;;;;;;;20.70;58.62;99732.47;5106569;28;20483;-29
2022/05/18 05:33:07;;;;;;;6.70;3.03;;;;;;;20.64;58.71;99760.75;5106799;28;20394;-29
2022/05/18 05:35:32;;;;;;;5.30;3.30;;;;;;;20.43;59.73;99723.06;5106984;28;20479;-30
2022/05/18 05:37:58;;;;;;;5.15;3.60;;;;;;;20.75;58.81;99740.50;5107219;28;20460;-34
2022/05/18 05:40:23;;;;;;;5.43;3.22;;;;;;;20.99;58.20;99753.97;5088190;28;20044;-29
2022/05/18 05:42:49;;;;;;;10.25;3.50;;;;;;;21.09;58.26;99738.63;5106617;28;20080;-30
2022/05/18 05:45:15;;;;;;;5.20;3.72;;;;;;;21.25;58.26;99729.94;5071429;28;20513;-30
2022/05/18 05:47:40;;;;;;;5.07;3.17;;;;;;;21.34;57.61;99759.88;5107824;28;20114;-29
2022/05/18 05:50:06;;;;;;;4.88;3.38;;;;;;;21.23;57.43;99739.47;5110734;28;20043;-30
2022/05/18 05:52:32;;;;;;;6.32;3.35;;;;;;;21.27;57.70;99741.28;5092011;28;20031;-29
2022/05/18 05:54:59;;;;;;;8.00;3.40;;;;;;;21.52;57.69;99754.72;5092226;28;20031;-30
2022/05/18 05:57:25;;;;;;;4.55;3.13;;;;;;;21.58;57.67;99773.31;5110775;28;20024;-29
2022/05/18 05:59:51;;;;;;;6.05;4.00;;;;;;;21.75;57.63;99767.31;5091864;28;20031;-32
2022/05/18 06:02:16;;;;;;;5.57;3.33;;;;;;;21.74;56.88;99765.72;5109031;28;20051;-30
2022/05/18 06:04:43;;;;;;;7.15;4.10;;;;;;;21.71;56.75;99751.94;5110466;28;20540;-30
2022/05/18 06:07:08;;;;;;;9.32;3.88;;;;;;;21.71;56.81;99754.66;5109048;28;20548;-32
2022/05/18 06:09:34;;;;;;;7.07;3.83;;;;;;;21.73;56.26;99747.00;5108978;28;20028;-31
2022/05/18 06:12:00;;;;;;;6.43;3.63;;;;;;;21.51;56.61;99739.53;5110145;28;20070;-33
2022/05/18 06:14:26;;;;;;;8.15;3.70;;;;;;;21.63;57.41;99759.66;5110200;28;20031;-31
2022/05/18 06:16:51;;;;;;;9.05;4.03;;;;;;;21.94;55.88;99753.63;5109993;28;20089;-29
2022/05/18 06:19:18;;;;;;;6.63;3.65;;;;;;;22.16;54.38;99761.06;5110406;28;20039;-32
2022/05/18 06:21:46;;;;;;;6.65;4.03;;;;;;;22.52;55.09;99778.56;5091822;28;20031;-29
2022/05/18 06:24:12;;;;;;;6.80;3.72;;;;;;;22.53;53.47;99763.84;5108648;28;20130;-29
2022/05/18 06:26:38;;;;;;;9.20;3.75;;;;;;;22.57;53.35;99778.44;5091522;28;20071;-32
2022/05/18 06:29:04;;;;;;;8.75;4.00;;;;;;;22.78;54.11;99779.59;5108265;28;20124;-29
2022/05/18 06:31:30;;;;;;;4.53;3.25;;;;;;;22.79;53.56;99773.03;5108796;28;20023;-32
2022/05/18 06:33:55;;;;;;;5.05;3.47;;;;;;;22.95;53.66;99750.94;5109789;28;20038;-29
2022/05/18 06:36:21;;;;;;;10.32;4.38;;;;;;;23.11;52.50;99770.41;5110014;28;20038;-32
2022/05/18 06:38:46;;;;;;;7.45;3.40;;;;;;;23.46;52.55;99768.72;5109268;28;20066;-30
2022/05/18 06:41:24;;;;;;;7.80;3.40;;;;;;;23.44;52.00;99760.06;5109563;28;20039;-31
2022/05/18 06:43:50;;;;;;;;;;;;;;;23.61;52.62;99784.63;5110432;28;20027;-30
2022/05/18 06:46:16;;;;;;;7.82;3.80;;;;;;;23.73;52.54;99780.53;5109817;28;19911;-32
2022/05/18 06:48:42;;;;;;;7.50;3.90;;;;;;;23.95;52.41;99780.47;5074337;28;20150;-30
2022/05/18 06:51:08;;;;;;;6.70;3.05;;;;;;;24.15;49.97;99789.19;5109424;28;20107;-30
2022/05/18 06:53:33;;;;;;;8.38;3.40;;;;;;;24.01;50.32;99779.22;5091136;28;20035;-29
2022/05/18 06:55:59;;;;;;;6.22;4.10;;;;;;;24.11;50.64;99777.31;5109175;28;20030;-34
2022/05/18 06:58:24;;;;;;;7.07;3.80;;;;;;;24.24;50.20;99795.47;5108540;28;20024;-31
2022/05/18 07:00:50;;;;;;;7.05;4.03;;;;;;;24.28;50.43;99782.81;5109126;28;20026;-35
2022/05/18 07:03:16;;;;;;;7.05;3.30;;;;;;;24.26;50.32;99787.78;5109477;28;20400;-30
2022/05/18 07:05:44;;;;;;;6.57;3.53;;;;;;;24.16;50.63;99791.59;5109555;28;20054;-32
2022/05/18 07:08:09;;;;;;;5.72;3.40;;;;;;;24.24;49.99;99776.41;5090950;28;20516;-29
2022/05/18 07:10:35;;;;;;;5.47;3.25;;;;;;;24.40;49.83;99785.72;5107350;28;20040;-32
2022/05/18 07:13:00;;;;;;;6.57;3.97;;;;;;;24.50;48.75;99778.38;5108957;28;20540;-29
2022/05/18 07:15:26;;;;;;;4.55;3.25;;;;;;;24.80;48.87;99796.50;5109128;28;20038;-32
2022/05/18 07:17:51;;;;;;;5.40;3.17;;;;;;;24.89;48.50;99792.97;5108925;28;20081;-30
2022/05/18 07:20:17;;;;;;;4.95;3.47;;;;;;;24.90;48.13;99800.84;5108869;28;20024;-33
2022/05/18 07:22:42;;;;;;;6.95;3.38;;;;;;;25.11;48.00;99795.56;5103355;28;20028;-31
2022/05/18 07:25:08;;;;;;;5.25;2.90;;;;;;;24.98;47.47;99804.72;5101896;28;20050;-35
2022/05/18 07:27:34;;;;;;;5.97;3.38;;;;;;;24.77;47.72;99789.00;5101023;27;20023;-35
2022/05/18 07:30:02;;;;;;;7.70;3.30;;;;;;;24.84;47.48;99802.13;5129198;27;20023;-29
2022/05/18 07:32:28;;;;;;;7.20;3.28;;;;;;;24.83;47.17;99804.06;5110411;27;20027;-34
2022/05/18 07:34:53;;;;;;;6.53;3.53;;;;;;;24.80;47.37;99787.53;5128947;27;20061;-32
2022/05/18 07:37:19;;;;;;;5.15;3.22;;;;;;;24.64;47.69;99798.09;5110295;27;20030;-33
2022/05/18 07:39:44;;;;;;;8.02;4.07;;;;;;;24.67;48.49;99808.41;5128568;27;20086;-32
2022/05/18 07:42:10;;;;;;;5.28;3.20;;;;;;;24.83;48.79;99814.97;5128583;27;20049;-31
2022/05/18 07:44:37;;;;;;;8.82;3.63;;;;;;;24.57;48.94;99789.63;5127098;27;20027;-31
2022/05/18 07:47:05;;;;;;;8.57;3.70;;;;;;;24.95;48.54;99829.91;5110489;27;20041;-30
2022/05/18 07:49:39;;;;;;;8.57;3.90;;;;;;;25.02;48.31;99811.13;5128527;27;20038;-30
2022/05/18 07:52:05;;;;;;;5.80;3.42;;;;;;;25.03;46.98;99829.13;5121865;27;20041;-32
2022/05/18 07:54:31;;;;;;;7.10;3.20;;;;;;;25.02;46.83;99841.94;5109320;27;20087;-32
2022/05/18 07:56:56;;;;;;;4.88;3.15;;;;;;;24.83;47.30;99814.19;5120869;27;20647;-30
2022/05/18 07:59:21;;;;;;;5.60;3.60;;;;;;;25.21;46.94;99825.28;5112253;27;20074;-29
2022/05/18 08:01:47;;;;;;;9.40;3.35;;;;;;;25.06;46.43;99823.00;5127453;27;20026;-32
2022/05/18 08:04:12;;;;;;;5.45;3.58;;;;;;;25.18;46.59;99814.97;5118370;27;20028;-31
2022/05/18 08:06:38;;;;;;;5.70;3.13;;;;;;;25.34;47.32;99826.22;5107465;28;20030;-30
2022/05/18 08:09:04;;;;;;;5.95;2.97;;;;;;;25.64;45.83;99826.28;5107461;28;20073;-33
2022/05/18 08:16:58;;;;;;;5.55;3.40;;;;;;;25.17;47.56;99828.91;5107757;28;20498;-31
2022/05/18 08:19:24;;;;;;;5.70;2.92;;;;;;;25.23;47.98;99831.22;5088821;27;20047;-32
2022/05/18 08:21:49;;;;;;;8.18;3.67;;;;;;;25.63;48.17;99836.41;5119677;27;20479;-34
2022/05/18 08:24:15;;;;;;;6.88;2.97;;;;;;;25.48;45.31;99831.50;5110561;27;20479;-33
2022/05/18 08:26:42;;;;;;;6.35;2.85;;;;;;;25.62;44.18;99845.75;5109191;27;20027;-33
2022/05/18 08:29:09;;;;;;;7.60;3.20;;;;;;;25.78;45.64;99831.56;5128365;27;20038;-30
2022/05/18 08:31:35;;;;;;;5.00;2.83;;;;;;;26.04;45.81;99845.94;5109098;27;20027;-31
2022/05/18 08:34:00;;;;;;;5.05;3.70;;;;;;;26.08;44.73;99834.38;5127710;27;20438;-32
2022/05/18 08:36:26;;;;;;;5.25;3.33;;;;;;;26.22;43.71;99845.88;5128046;27;20047;-35
2022/05/18 08:38:55;;;;;;;5.63;2.90;;;;;;;26.14;43.49;99833.06;5108915;27;20400;-32
2022/05/18 08:41:42;;;;;;;6.10;3.97;;;;;;;26.28;43.60;99850.03;5109154;27;20023;-32
2022/05/18 08:44:13;;;;;;;5.93;3.05;;;;;;;26.40;43.57;99852.88;5109492;27;20031;-30
2022/05/18 08:46:43;;;;;;;5.93;3.30;;;;;;;26.72;44.46;99836.91;5108615;27;20119;-34
2022/05/18 08:49:30;;;;;;;5.10;2.85;;;;;;;26.73;42.85;99854.94;5126352;27;20031;-30
2022/05/18 08:52:14;;;;;;;6.00;3.00;;;;;;;26.14;43.00;99874.06;5105212;27;20050;-31
2022/05/18 08:55:04;;;;;;;3.85;2.90;;;;;;;25.94;44.44;99870.09;5106375;28;20020;-30
2022/05/18 08:57:37;;;;;;;4.65;3.03;;;;;;;26.38;44.10;99873.47;5119146;27;20083;-33
2022/05/18 09:00:13;;;;;;;6.03;3.00;;;;;;;25.81;45.28;99885.56;5108952;27;20043;-31
2022/05/18 09:02:41;;;;;;;9.23;3.63;;;;;;;25.88;45.48;99891.31;5124306;27;20068;-31
2022/05/18 09:05:14;;;;;;;5.22;2.88;;;;;;;25.06;45.22;99894.72;5108189;27;20027;-30
2022/05/18 09:07:50;;;;;;;6.40;3.30;;;;;;;24.89;46.67;99900.19;5109135;27;20460;-35
2022/05/18 09:10:41;;;;;;;6.28;3.03;;;;;;;24.72;46.08;99903.66;5096731;28;20031;-35
2022/05/18 09:13:06;;;;;;;7.35;3.30;;;;;;;24.60;46.64;99881.66;5088651;28;20061;-29
2022/05/18 09:15:49;;;;;;;5.13;3.40;;;;;;;24.17;48.00;99902.19;5106663;28;20088;-31
2022/05/18 09:18:37;;;;;;;5.07;2.90;;;;;;;23.75;49.30;99884.47;5105603;28;20107;-30
2022/05/18 09:21:19;;;;;;;4.88;3.10;;;;;;;23.71;50.42;99918.88;5105612;28;20028;-29
2022/05/18 09:23:50;;;;;;;6.20;3.53;;;;;;;23.11;53.10;99899.06;5110909;28;20036;-32
2022/05/18 09:26:22;;;;;;;10.55;4.72;;;;;;;22.69;53.52;99916.53;5111165;28;20028;-30
2022/05/18 09:29:21;;;;;;;6.72;3.70;;;;;;;22.80;55.79;99920.63;5109376;28;20027;-34
2022/05/18 09:31:52;;;;;;;7.85;4.03;;;;;;;22.54;55.99;99914.94;5111027;28;20710;-34
2022/05/18 09:34:43;;;;;;;7.88;3.95;;;;;;;22.27;57.16;99925.47;5110616;28;20019;-37
2022/05/18 09:37:14;;;;;;;6.95;4.00;;;;;;;21.84;57.86;99938.41;5092372;28;20028;-29
2022/05/18 09:39:44;;;;;;;6.40;3.42;;;;;;;21.53;59.28;99938.91;5110939;28;20059;-31
2022/05/18 09:42:17;;;;;;;7.20;4.15;;;;;;;21.33;61.55;99936.47;5092120;28;20506;-32
2022/05/18 09:44:46;;;;;;;7.20;4.90;;;;;;;21.19;62.22;99939.13;5091831;28;20919;-30
2022/05/18 09:47:17;;;;;;;6.85;5.05;;;;;;;21.30;63.23;99928.94;5109272;28;20080;-33
2022/05/18 09:50:06;;;;;;;7.93;5.13;;;;;;;21.37;63.70;99932.06;5092435;28;20101;-30
2022/05/18 09:52:32;;;;;;;8.43;5.82;;;;;;;21.11;63.51;99921.59;5091885;28;20030;-31
2022/05/18 09:55:00;;;;;;;7.97;5.13;;;;;;;21.30;62.91;99934.38;5110546;28;20032;-31
2022/05/18 09:57:37;;;;;;;8.30;5.78;;;;;;;20.91;63.99;99921.88;5075111;28;20024;-29
2022/05/18 10:00:17;;;;;;;9.10;6.38;;;;;;;21.19;63.77;99931.78;5092006;28;20042;-32
2022/05/18 10:08:24;;;;;;;8.85;6.15;;;;;;;21.38;62.84;99942.63;5110520;28;20514;-32
2022/05/18 10:11:00;;;;;;;8.73;5.22;;;;;;;21.14;63.04;99941.91;5091576;28;20085;-29
2022/05/18 10:13:32;;;;;;;8.43;5.72;;;;;;;21.09;63.59;99936.56;5091928;28;20039;-29
2022/05/18 10:16:20;;;;;;;7.95;5.75;;;;;;;21.01;63.60;99921.75;5109878;28;20488;-31
2022/05/18 10:18:49;;;;;;;8.00;5.70;;;;;;;21.17;62.92;99936.72;5110086;28;20020;-30
2022/05/18 10:21:46;;;;;;;8.38;5.57;;;;;;;21.24;61.99;99937.13;5109858;28;20035;-28
2022/05/18 10:24:36;;;;;;;6.75;4.20;;;;;;;21.08;62.13;99943.88;5053535;28;20048;-31
2022/05/18 10:27:10;;;;;;;6.10;4.60;;;;;;;21.17;61.75;99931.28;5110176;28;20035;-29
2022/05/18 10:29:36;;;;;;;6.45;4.07;;;;;;;21.22;61.36;99920.34;5109942;28;20407;-32
2022/05/18 10:32:08;;;;;;;6.60;4.38;;;;;;;21.50;61.30;99939.50;5109924;28;20028;-33
2022/05/18 10:34:48;;;;;;;4.88;3.30;;;;;;;21.11;61.16;99924.31;5107964;28;20028;-32
2022/05/18 10:37:24;;;;;;;6.75;4.43;;;;;;;21.33;61.68;99941.91;5091176;28;20031;-32
2022/05/18 10:39:50;;;;;;;6.25;4.07;;;;;;;21.32;61.21;99951.16;5109329;28;20044;-31
2022/05/18 10:42:26;;;;;;;6.50;3.70;;;;;;;21.22;61.61;99950.19;5109475;28;20533;-34
2022/05/18 10:44:54;;;;;;;5.95;3.95;;;;;;;21.23;61.53;99935.53;5107626;28;20031;-31
2022/05/18 10:47:36;;;;;;;5.22;3.45;;;;;;;21.37;61.31;99957.31;5090658;28;20499;-31
2022/05/18 10:50:24;;;;;;;6.63;4.30;;;;;;;21.43;59.95;99955.34;5109442;28;20048;-30
2022/05/18 10:53:11;;;;;;;7.07;4.32;;;;;;;21.42;60.29;99957.25;5107842;28;20574;-30
2022/05/18 10:55:52;;;;;;;7.80;4.35;;;;;;;21.46;59.93;99949.34;5066760;28;20050;-31
2022/05/18 10:58:41;;;;;;;7.03;4.60;;;;;;;21.78;60.07;99972.19;5107642;28;20024;-29
2022/05/18 11:01:22;;;;;;;5.35;3.67;;;;;;;21.78;59.78;99955.88;5044168;28;20044;-29
2022/05/18 11:03:53;;;;;;;5.72;4.00;;;;;;;22.14;58.85;99975.09;5090780;28;20114;-30
2022/05/18 11:06:37;;;;;;;6.13;4.40;;;;;;;22.38;58.35;99985.84;5109192;28;20059;-32
2022/05/18 11:09:18;;;;;;;5.82;3.97;;;;;;;22.30;58.70;99978.41;5073946;28;20038;-35
2022/05/18 11:12:06;;;;;;;6.13;4.25;;;;;;;22.64;57.55;99985.41;5090478;28;20112;-30
2022/05/18 11:14:40;;;;;;;;;;;;;;;22.44;57.26;99994.72;5109251;28;20084;-29
2022/05/18 11:17:15;;;;;;;6.00;4.30;;;;;;;22.87;55.81;99992.53;5090451;28;19918;-31
2022/05/18 11:20:21;;;;;;;6.25;4.60;;;;;;;23.15;54.56;99999.88;5109296;28;20023;-29
2022/05/18 11:22:55;;;;;;;6.33;4.50;;;;;;;22.74;55.60;99997.97;5078767;28;20618;-36
2022/05/18 11:25:42;;;;;;;6.30;4.35;;;;;;;23.17;54.77;100012.09;5108755;28;20096;-31
2022/05/18 11:28:33;;;;;;;6.50;3.97;;;;;;;23.40;54.27;100053.75;5107506;28;20035;-29
2022/05/18 11:31:46;;;;;;;19.50;2.00;;;;;;;20.76;56.49;100107.13;5108568;28;20500;-29
2022/05/18 11:34:40;;;;;;;7.22;0.88;;;;;;;19.12;61.10;100122.41;5081163;28;20057;-30
2022/05/18 11:37:42;;;;;;;3.80;0.70;;;;;;;17.97;64.72;100119.16;5107045;28;20122;-30
2022/05/18 11:40:42;;;;;;;6.20;0.50;;;;;;;17.11;67.79;100117.72;5108153;28;20487;-32
2022/05/18 11:43:35;;;;;;;9.82;0.90;;;;;;;16.70;68.46;100136.25;5108324;28;20050;-31
2022/05/18 11:46:13;;;;;;;5.22;0.60;;;;;;;16.36;69.59;100143.78;5107997;28;20031;-31
2022/05/18 11:48:49;;;;;;;5.38;1.02;;;;;;;16.53;68.95;100149.03;5108248;28;20046;-29
2022/05/18 11:51:33;;;;;;;2.53;0.60;;;;;;;16.45;68.15;100148.44;5108299;28;20058;-29
2022/05/18 11:54:10;;;;;;;5.47;1.25;;;;;;;15.98;68.68;100159.81;5108235;28;20747;-29
2022/05/18 11:56:40;;;;;;;4.22;1.15;;;;;;;15.91;69.71;100153.81;5108138;28;20027;-30
2022/05/18 11:59:28;;;;;;;4.80;0.90;;;;;;;16.00;68.72;100163.06;5108290;28;20092;-29
2022/05/18 12:02:14;;;;;;;1.35;0.20;;;;;;;15.89;69.75;100164.00;5108094;28;20063;-29